sensor_id;sensor_type;location;lat;lon;timestamp;pressure;altitude;pressure_sealevel;temperature;humidity
74310;BME280;62722;51.142;17.052;2023-04-06T00:01:57;100806.72;;;-0.35;86.63
74310;BME280;62722;51.142;17.052;2023-04-06T00:04:24;100809.38;;;-0.39;86.31
74310;BME280;62722;51.142;17.052;2023-04-06T00:06:52;100805.03;;;-0.39;86.64
74310;BME280;62722;51.142;17.052;2023-04-06T00:09:20;100805.91;;;-0.40;87.14
74310;BME280;62722;51.142;17.052;2023-04-06T00:11:49;100806.78;;;-0.39;86.89
74310;BME280;62722;51.142;17.052;2023-04-06T00:14:16;100800.59;;;-0.29;86.72
74310;BME280;62722;51.142;17.052;2023-04-06T00:16:43;100806.59;;;-0.24;85.90
74310;BME280;62722;51.142;17.052;2023-04-06T00:19:11;100813.50;;;-0.25;85.71
74310;BME280;62722;51.142;17.052;2023-04-06T00:21:38;100804.91;;;-0.28;85.41
74310;BME280;62722;51.142;17.052;2023-04-06T00:24:06;100800.63;;;-0.31;85.42
74310;BME280;62722;51.142;17.052;2023-04-06T00:26:33;100806.81;;;-0.42;84.79
74310;BME280;62722;51.142;17.052;2023-04-06T00:29:02;100812.44;;;-0.80;86.80
74310;BME280;62722;51.142;17.052;2023-04-06T00:31:30;100811.84;;;-1.07;90.18
74310;BME280;62722;51.142;17.052;2023-04-06T00:33:58;100803.13;;;-1.00;91.45
74310;BME280;62722;51.142;17.052;2023-04-06T00:36:25;100794.38;;;-0.88;90.39
74310;BME280;62722;51.142;17.052;2023-04-06T00:38:52;100812.59;;;-0.95;90.31
74310;BME280;62722;51.142;17.052;2023-04-06T00:41:20;100807.50;;;-1.05;91.60
74310;BME280;62722;51.142;17.052;2023-04-06T00:43:47;100793.56;;;-0.93;91.70
74310;BME280;62722;51.142;17.052;2023-04-06T00:46:17;100800.41;;;-0.87;90.73
74310;BME280;62722;51.142;17.052;2023-04-06T00:48:44;100799.63;;;-0.92;90.78
74310;BME280;62722;51.142;17.052;2023-04-06T00:51:12;100802.16;;;-0.86;90.87
74310;BME280;62722;51.142;17.052;2023-04-06T00:53:39;100796.97;;;-0.86;90.69
74310;BME280;62722;51.142;17.052;2023-04-06T00:56:07;100792.47;;;-0.72;90.47
74310;BME280;62722;51.142;17.052;2023-04-06T00:58:35;100798.53;;;-0.73;89.92
74310;BME280;62722;51.142;17.052;2023-04-06T01:01:04;100796.00;;;-0.79;89.73
74310;BME280;62722;51.142;17.052;2023-04-06T01:03:33;100799.56;;;-0.86;90.11
74310;BME280;62722;51.142;17.052;2023-04-06T01:06:01;100803.88;;;-0.88;90.76
74310;BME280;62722;51.142;17.052;2023-04-06T01:08:28;100806.47;;;-0.85;90.27
74310;BME280;62722;51.142;17.052;2023-04-06T01:10:56;100799.34;;;-0.68;89.17
74310;BME280;62722;51.142;17.052;2023-04-06T01:13:23;100811.34;;;-0.61;87.53
74310;BME280;62722;51.142;17.052;2023-04-06T01:15:52;100804.41;;;-0.56;87.39
74310;BME280;62722;51.142;17.052;2023-04-06T01:18:25;100804.34;;;-0.55;86.63
74310;BME280;62722;51.142;17.052;2023-04-06T01:20:54;100800.91;;;-0.55;86.61
74310;BME280;62722;51.142;17.052;2023-04-06T01:23:23;100797.63;;;-0.69;86.79
74310;BME280;62722;51.142;17.052;2023-04-06T01:25:51;100795.22;;;-0.86;87.10
74310;BME280;62722;51.142;17.052;2023-04-06T01:28:21;100790.16;;;-1.00;88.11
74310;BME280;62722;51.142;17.052;2023-04-06T01:30:49;100801.44;;;-1.01;88.96
74310;BME280;62722;51.142;17.052;2023-04-06T01:33:16;100793.53;;;-0.90;88.06
74310;BME280;62722;51.142;17.052;2023-04-06T01:35:44;100793.44;;;-0.81;87.62
74310;BME280;62722;51.142;17.052;2023-04-06T01:38:11;100799.47;;;-0.79;87.17
74310;BME280;62722;51.142;17.052;2023-04-06T01:40:40;100794.25;;;-0.74;86.81
74310;BME280;62722;51.142;17.052;2023-04-06T01:43:07;100801.09;;;-0.70;86.25
74310;BME280;62722;51.142;17.052;2023-04-06T01:45:35;100796.09;;;-0.85;86.67
74310;BME280;62722;51.142;17.052;2023-04-06T01:48:02;100788.41;;;-0.96;86.68
74310;BME280;62722;51.142;17.052;2023-04-06T01:50:30;100797.16;;;-1.05;86.94
74310;BME280;62722;51.142;17.052;2023-04-06T01:52:57;100793.78;;;-1.11;87.37
74310;BME280;62722;51.142;17.052;2023-04-06T01:55:25;100791.22;;;-1.16;87.73
74310;BME280;62722;51.142;17.052;2023-04-06T01:57:53;100790.31;;;-1.13;87.72
74310;BME280;62722;51.142;17.052;2023-04-06T02:00:21;100802.47;;;-1.20;87.44
74310;BME280;62722;51.142;17.052;2023-04-06T02:02:48;100801.56;;;-1.16;87.94
74310;BME280;62722;51.142;17.052;2023-04-06T02:05:16;100794.69;;;-1.20;87.54
74310;BME280;62722;51.142;17.052;2023-04-06T02:07:43;100798.22;;;-1.27;87.32
74310;BME280;62722;51.142;17.052;2023-04-06T02:10:12;100799.97;;;-1.30;87.91
74310;BME280;62722;51.142;17.052;2023-04-06T02:12:39;100796.50;;;-1.28;87.81
74310;BME280;62722;51.142;17.052;2023-04-06T02:15:09;100794.69;;;-1.20;87.90
74310;BME280;62722;51.142;17.052;2023-04-06T02:17:38;100798.19;;;-1.25;87.12
74310;BME280;62722;51.142;17.052;2023-04-06T02:20:07;100805.16;;;-1.32;87.35
74310;BME280;62722;51.142;17.052;2023-04-06T02:22:35;100791.34;;;-1.31;88.38
74310;BME280;62722;51.142;17.052;2023-04-06T02:25:02;100786.06;;;-1.19;87.86
74310;BME280;62722;51.142;17.052;2023-04-06T02:27:30;100789.41;;;-1.11;86.81
74310;BME280;62722;51.142;17.052;2023-04-06T02:29:59;100793.78;;;-1.11;86.00
74310;BME280;62722;51.142;17.052;2023-04-06T02:32:27;100798.09;;;-1.12;86.22
74310;BME280;62722;51.142;17.052;2023-04-06T02:34:55;100791.22;;;-1.16;86.22
74310;BME280;62722;51.142;17.052;2023-04-06T02:37:22;100798.22;;;-1.27;86.41
74310;BME280;62722;51.142;17.052;2023-04-06T02:39:50;100800.91;;;-1.39;87.93
74310;BME280;62722;51.142;17.052;2023-04-06T02:42:17;100798.44;;;-1.54;89.10
74310;BME280;62722;51.142;17.052;2023-04-06T02:44:45;100808.84;;;-1.60;89.30
74310;BME280;62722;51.142;17.052;2023-04-06T02:47:12;100815.81;;;-1.67;89.79
74310;BME280;62722;51.142;17.052;2023-04-06T02:49:41;100811.50;;;-1.69;90.13
74310;BME280;62722;51.142;17.052;2023-04-06T02:52:08;100810.53;;;-1.55;90.14
74310;BME280;62722;51.142;17.052;2023-04-06T02:54:36;100802.66;;;-1.42;88.64
74310;BME280;62722;51.142;17.052;2023-04-06T02:57:03;100812.13;;;-1.37;87.88
74310;BME280;62722;51.142;17.052;2023-04-06T02:59:31;100815.59;;;-1.38;87.25
74310;BME280;62722;51.142;17.052;2023-04-06T03:01:58;100820.78;;;-1.42;87.28
74310;BME280;62722;51.142;17.052;2023-04-06T03:04:26;100810.44;;;-1.41;87.93
74310;BME280;62722;51.142;17.052;2023-04-06T03:06:55;100817.25;;;-1.31;86.87
74310;BME280;62722;51.142;17.052;2023-04-06T03:09:22;100818.97;;;-1.33;86.22
74310;BME280;62722;51.142;17.052;2023-04-06T03:11:49;100821.56;;;-1.33;86.28
74310;BME280;62722;51.142;17.052;2023-04-06T03:14:17;100822.47;;;-1.35;86.34
74310;BME280;62722;51.142;17.052;2023-04-06T03:16:47;100827.66;;;-1.38;86.71
74310;BME280;62722;51.142;17.052;2023-04-06T03:19:15;100819.88;;;-1.35;86.19
74310;BME280;62722;51.142;17.052;2023-04-06T03:21:42;100820.75;;;-1.38;86.23
74310;BME280;62722;51.142;17.052;2023-04-06T03:24:11;100827.66;;;-1.37;86.25
74310;BME280;62722;51.142;17.052;2023-04-06T03:26:39;100824.16;;;-1.33;85.84
74310;BME280;62722;51.142;17.052;2023-04-06T03:29:06;100831.13;;;-1.38;85.61
74310;BME280;62722;51.142;17.052;2023-04-06T03:31:34;100832.00;;;-1.43;85.76
74310;BME280;62722;51.142;17.052;2023-04-06T03:34:01;100841.50;;;-1.41;85.95
74310;BME280;62722;51.142;17.052;2023-04-06T03:36:28;100838.03;;;-1.38;85.61
74310;BME280;62722;51.142;17.052;2023-04-06T03:38:56;100829.47;;;-1.48;85.57
74310;BME280;62722;51.142;17.052;2023-04-06T03:41:25;100840.69;;;-1.51;86.20
74310;BME280;62722;51.142;17.052;2023-04-06T03:43:52;100840.66;;;-1.48;85.90
74310;BME280;62722;51.142;17.052;2023-04-06T03:46:19;100842.44;;;-1.50;86.00
74310;BME280;62722;51.142;17.052;2023-04-06T03:48:48;100842.41;;;-1.51;85.68
74310;BME280;62722;51.142;17.052;2023-04-06T03:51:15;100838.94;;;-1.47;85.80
74310;BME280;62722;51.142;17.052;2023-04-06T03:53:43;100840.66;;;-1.46;85.78
74310;BME280;62722;51.142;17.052;2023-04-06T03:56:10;100840.63;;;-1.43;85.64
74310;BME280;62722;51.142;17.052;2023-04-06T03:58:40;100836.28;;;-1.38;85.37
74310;BME280;62722;51.142;17.052;2023-04-06T04:01:10;100846.69;;;-1.44;84.77
74310;BME280;62722;51.142;17.052;2023-04-06T04:03:37;100838.94;;;-1.47;85.02
74310;BME280;62722;51.142;17.052;2023-04-06T04:06:05;100845.00;;;-1.48;85.17
74310;BME280;62722;51.142;17.052;2023-04-06T04:08:32;100843.28;;;-1.51;85.15
74310;BME280;62722;51.142;17.052;2023-04-06T04:11:01;100851.09;;;-1.57;84.93
74310;BME280;62722;51.142;17.052;2023-04-06T04:13:28;100848.59;;;-1.67;84.69
74310;BME280;62722;51.142;17.052;2023-04-06T04:15:57;100848.56;;;-1.64;85.76
74310;BME280;62722;51.142;17.052;2023-04-06T04:18:24;100853.72;;;-1.61;85.13
74310;BME280;62722;51.142;17.052;2023-04-06T04:20:51;100854.63;;;-1.70;85.38
74310;BME280;62722;51.142;17.052;2023-04-06T04:23:19;100843.41;;;-1.64;85.64
74310;BME280;62722;51.142;17.052;2023-04-06T04:25:46;100850.28;;;-1.66;85.40
74310;BME280;62722;51.142;17.052;2023-04-06T04:28:14;100858.91;;;-1.64;85.11
74310;BME280;62722;51.142;17.052;2023-04-06T04:30:41;100840.81;;;-1.64;85.11
74310;BME280;62722;51.142;17.052;2023-04-06T04:33:10;100854.56;;;-1.56;84.78
74310;BME280;62722;51.142;17.052;2023-04-06T04:35:37;100851.09;;;-1.54;84.46
74310;BME280;62722;51.142;17.052;2023-04-06T04:38:04;100841.63;;;-1.56;84.13
74310;BME280;62722;51.142;17.052;2023-04-06T04:40:32;100854.56;;;-1.56;84.84
74310;BME280;62722;51.142;17.052;2023-04-06T04:42:59;100851.06;;;-1.55;84.82
74310;BME280;62722;51.142;17.052;2023-04-06T04:45:26;100846.91;;;-1.74;86.07
74310;BME280;62722;51.142;17.052;2023-04-06T04:47:54;100848.66;;;-1.79;87.01
74310;BME280;62722;51.142;17.052;2023-04-06T04:50:22;100841.72;;;-1.73;86.72
74310;BME280;62722;51.142;17.052;2023-04-06T04:52:50;100850.31;;;-1.69;86.26
74310;BME280;62722;51.142;17.052;2023-04-06T04:55:17;100849.41;;;-1.62;86.40
74310;BME280;62722;51.142;17.052;2023-04-06T04:57:45;100853.66;;;-1.52;85.82
74310;BME280;62722;51.142;17.052;2023-04-06T05:00:13;100862.25;;;-1.47;85.65
74310;BME280;62722;51.142;17.052;2023-04-06T05:02:41;100856.19;;;-1.41;85.40
74310;BME280;62722;51.142;17.052;2023-04-06T05:05:08;100863.91;;;-1.37;85.12
74310;BME280;62722;51.142;17.052;2023-04-06T05:07:37;100855.25;;;-1.36;85.43
74310;BME280;62722;51.142;17.052;2023-04-06T05:10:05;100859.53;;;-1.30;85.44
74310;BME280;62722;51.142;17.052;2023-04-06T05:12:33;100858.66;;;-1.28;85.88
74310;BME280;62722;51.142;17.052;2023-04-06T05:15:01;100860.34;;;-1.24;85.83
74310;BME280;62722;51.142;17.052;2023-04-06T05:17:28;100865.59;;;-1.33;86.45
74310;BME280;62722;51.142;17.052;2023-04-06T05:19:56;100859.53;;;-1.32;87.47
74310;BME280;62722;51.142;17.052;2023-04-06T05:22:24;100864.69;;;-1.27;87.53
74310;BME280;62722;51.142;17.052;2023-04-06T05:24:53;100863.78;;;-1.25;87.35
74310;BME280;62722;51.142;17.052;2023-04-06T05:27:20;100867.34;;;-1.36;87.99
74310;BME280;62722;51.142;17.052;2023-04-06T05:29:48;100868.28;;;-1.47;88.58
74310;BME280;62722;51.142;17.052;2023-04-06T05:32:16;100870.91;;;-1.48;88.66
74310;BME280;62722;51.142;17.052;2023-04-06T05:34:48;100876.94;;;-1.49;88.84
74310;BME280;62722;51.142;17.052;2023-04-06T05:37:15;100870.94;;;-1.54;88.70
74310;BME280;62722;51.142;17.052;2023-04-06T05:39:43;100872.66;;;-1.53;88.85
74310;BME280;62722;51.142;17.052;2023-04-06T05:42:12;100868.31;;;-1.48;88.83
74310;BME280;62722;51.142;17.052;2023-04-06T05:44:39;100866.50;;;-1.40;88.35
74310;BME280;62722;51.142;17.052;2023-04-06T05:47:07;100874.25;;;-1.34;87.89
74310;BME280;62722;51.142;17.052;2023-04-06T05:49:34;100872.53;;;-1.38;87.63
74310;BME280;62722;51.142;17.052;2023-04-06T05:52:01;100876.84;;;-1.38;87.65
74310;BME280;62722;51.142;17.052;2023-04-06T05:54:30;100875.09;;;-1.36;87.70
74310;BME280;62722;51.142;17.052;2023-04-06T05:57:04;100876.81;;;-1.32;87.43
74310;BME280;62722;51.142;17.052;2023-04-06T05:59:36;100877.63;;;-1.26;87.27
74310;BME280;62722;51.142;17.052;2023-04-06T06:02:03;100874.06;;;-1.13;87.63
74310;BME280;62722;51.142;17.052;2023-04-06T06:04:31;100865.31;;;-0.98;86.94
74310;BME280;62722;51.142;17.052;2023-04-06T06:07:00;100860.94;;;-0.96;86.48
74310;BME280;62722;51.142;17.052;2023-04-06T06:09:27;100863.53;;;-0.94;85.57
74310;BME280;62722;51.142;17.052;2023-04-06T06:11:55;100873.88;;;-0.91;85.65
74310;BME280;62722;51.142;17.052;2023-04-06T06:14:23;100870.38;;;-0.87;85.45
74310;BME280;62722;51.142;17.052;2023-04-06T06:16:52;100873.81;;;-0.82;86.04
74310;BME280;62722;51.142;17.052;2023-04-06T06:19:20;100867.69;;;-0.75;85.85
74310;BME280;62722;51.142;17.052;2023-04-06T06:21:47;100878.88;;;-0.70;85.97
74310;BME280;62722;51.142;17.052;2023-04-06T06:24:15;100876.19;;;-0.64;86.12
74310;BME280;62722;51.142;17.052;2023-04-06T06:26:42;100863.16;;;-0.57;86.36
74310;BME280;62722;51.142;17.052;2023-04-06T06:29:09;100863.03;;;-0.46;85.40
74310;BME280;62722;51.142;17.052;2023-04-06T06:31:37;100860.38;;;-0.40;84.90
74310;BME280;62722;51.142;17.052;2023-04-06T06:34:06;100856.91;;;-0.37;85.29
74310;BME280;62722;51.142;17.052;2023-04-06T06:36:34;100868.06;;;-0.31;85.16
74310;BME280;62722;51.142;17.052;2023-04-06T06:39:02;100862.78;;;-0.25;85.56
74310;BME280;62722;51.142;17.052;2023-04-06T06:41:30;100868.81;;;-0.23;84.53
74310;BME280;62722;51.142;17.052;2023-04-06T06:43:57;100869.56;;;-0.15;84.31
74310;BME280;62722;51.142;17.052;2023-04-06T06:46:24;100871.25;;;-0.11;84.16
74310;BME280;62722;51.142;17.052;2023-04-06T06:48:51;100866.00;;;-0.05;84.25
74310;BME280;62722;51.142;17.052;2023-04-06T06:51:20;100870.28;;;-0.01;84.03
74310;BME280;62722;51.142;17.052;2023-04-06T06:53:48;100866.69;;;0.08;84.34
74310;BME280;62722;51.142;17.052;2023-04-06T06:56:15;100865.81;;;0.11;84.94
74310;BME280;62722;51.142;17.052;2023-04-06T06:58:42;100864.88;;;0.15;85.69
74310;BME280;62722;51.142;17.052;2023-04-06T07:01:10;100862.09;;;0.28;84.73
74310;BME280;62722;51.142;17.052;2023-04-06T07:03:38;100862.91;;;0.32;84.73
74310;BME280;62722;51.142;17.052;2023-04-06T07:06:06;100861.94;;;0.39;85.08
74310;BME280;62722;51.142;17.052;2023-04-06T07:08:34;100869.59;;;0.48;84.67
74310;BME280;62722;51.142;17.052;2023-04-06T07:11:02;100868.63;;;0.55;84.52
74310;BME280;62722;51.142;17.052;2023-04-06T07:13:30;100863.31;;;0.61;84.59
74310;BME280;62722;51.142;17.052;2023-04-06T07:15:57;100870.13;;;0.68;84.46
74310;BME280;62722;51.142;17.052;2023-04-06T07:18:25;100868.34;;;0.73;84.21
74310;BME280;62722;51.142;17.052;2023-04-06T07:20:52;100869.09;;;0.78;84.64
74310;BME280;62722;51.142;17.052;2023-04-06T07:23:22;100874.22;;;0.83;84.41
74310;BME280;62722;51.142;17.052;2023-04-06T07:25:54;100874.94;;;0.92;83.93
74310;BME280;62722;51.142;17.052;2023-04-06T07:28:24;100867.91;;;0.97;84.00
74310;BME280;62722;51.142;17.052;2023-04-06T07:30:53;100880.59;;;1.16;82.82
74310;BME280;62722;51.142;17.052;2023-04-06T07:33:21;100875.31;;;1.22;82.70
74310;BME280;62722;51.142;17.052;2023-04-06T07:35:48;100884.72;;;1.27;81.39
74310;BME280;62722;51.142;17.052;2023-04-06T07:38:16;100873.34;;;1.34;81.09
74310;BME280;62722;51.142;17.052;2023-04-06T07:40:44;100879.91;;;1.55;78.30
74310;BME280;62722;51.142;17.052;2023-04-06T07:43:12;100889.31;;;1.62;76.22
74310;BME280;62722;51.142;17.052;2023-04-06T07:45:40;100877.13;;;1.63;77.02
74310;BME280;62722;51.142;17.052;2023-04-06T07:48:07;100879.53;;;1.73;75.39
74310;BME280;62722;51.142;17.052;2023-04-06T07:50:35;100885.38;;;1.84;72.54
74310;BME280;62722;51.142;17.052;2023-04-06T07:53:02;100883.16;;;2.08;69.33
74310;BME280;62722;51.142;17.052;2023-04-06T07:55:29;100880.44;;;2.14;69.55
74310;BME280;62722;51.142;17.052;2023-04-06T07:57:56;100871.03;;;2.07;71.28
74310;BME280;62722;51.142;17.052;2023-04-06T08:00:25;100880.38;;;2.17;70.93
74310;BME280;62722;51.142;17.052;2023-04-06T08:02:53;100881.72;;;2.33;68.78
74310;BME280;62722;51.142;17.052;2023-04-06T08:05:20;100878.94;;;2.40;69.08
74310;BME280;62722;51.142;17.052;2023-04-06T08:07:48;100872.00;;;2.41;69.79
74310;BME280;62722;51.142;17.052;2023-04-06T08:10:15;100875.50;;;2.40;70.28
74310;BME280;62722;51.142;17.052;2023-04-06T08:12:46;100869.16;;;2.52;67.07
74310;BME280;62722;51.142;17.052;2023-04-06T08:15:13;100874.94;;;2.64;65.80
74310;BME280;62722;51.142;17.052;2023-04-06T08:17:42;100885.09;;;2.76;62.84
74310;BME280;62722;51.142;17.052;2023-04-06T08:20:10;100877.88;;;2.87;63.25
74310;BME280;62722;51.142;17.052;2023-04-06T08:22:37;100876.91;;;2.91;63.63
74310;BME280;62722;51.142;17.052;2023-04-06T08:25:06;100878.56;;;2.94;63.03
74310;BME280;62722;51.142;17.052;2023-04-06T08:27:33;100877.53;;;3.00;60.33
74310;BME280;62722;51.142;17.052;2023-04-06T08:30:01;100876.66;;;3.01;59.82
74310;BME280;62722;51.142;17.052;2023-04-06T08:32:28;100879.94;;;3.09;57.25
74310;BME280;62722;51.142;17.052;2023-04-06T08:34:57;100870.44;;;3.06;58.37
74310;BME280;62722;51.142;17.052;2023-04-06T08:37:25;100882.47;;;3.12;60.42
74310;BME280;62722;51.142;17.052;2023-04-06T08:39:55;100873.97;;;3.04;59.23
74310;BME280;62722;51.142;17.052;2023-04-06T08:42:32;100866.34;;;2.96;61.49
74310;BME280;62722;51.142;17.052;2023-04-06T08:45:00;100869.50;;;3.09;60.51
74310;BME280;62722;51.142;17.052;2023-04-06T08:47:28;100870.97;;;3.19;59.17
74310;BME280;62722;51.142;17.052;2023-04-06T08:49:57;100862.16;;;3.23;58.53
74310;BME280;62722;51.142;17.052;2023-04-06T08:52:26;100861.81;;;3.36;59.37
74310;BME280;62722;51.142;17.052;2023-04-06T08:54:54;100870.19;;;3.48;56.92
74310;BME280;62722;51.142;17.052;2023-04-06T08:57:22;100871.06;;;3.48;57.36
74310;BME280;62722;51.142;17.052;2023-04-06T08:59:50;100869.44;;;3.44;59.05
74310;BME280;62722;51.142;17.052;2023-04-06T09:02:18;100863.22;;;3.48;58.98
74310;BME280;62722;51.142;17.052;2023-04-06T09:04:48;100868.09;;;3.62;57.88
74310;BME280;62722;51.142;17.052;2023-04-06T09:07:17;100871.69;;;3.58;56.89
74310;BME280;62722;51.142;17.052;2023-04-06T09:09:45;100866.38;;;3.61;56.58
74310;BME280;62722;51.142;17.052;2023-04-06T09:12:25;100862.91;;;3.60;55.59
74310;BME280;62722;51.142;17.052;2023-04-06T09:15:00;100866.28;;;3.64;56.26
74310;BME280;62722;51.142;17.052;2023-04-06T09:17:29;100862.72;;;3.97;55.64
74310;BME280;62722;51.142;17.052;2023-04-06T09:19:59;100857.91;;;4.13;54.86
74310;BME280;62722;51.142;17.052;2023-04-06T09:22:36;100854.66;;;4.05;55.48
74310;BME280;62722;51.142;17.052;2023-04-06T09:25:05;100863.22;;;4.10;54.33
74310;BME280;62722;51.142;17.052;2023-04-06T09:27:35;100853.38;;;4.18;54.63
74310;BME280;62722;51.142;17.052;2023-04-06T09:30:07;100848.63;;;4.32;54.73
74310;BME280;62722;51.142;17.052;2023-04-06T09:32:47;100847.78;;;4.30;53.10
74310;BME280;62722;51.142;17.052;2023-04-06T09:35:16;100851.59;;;4.20;54.92
74310;BME280;62722;51.142;17.052;2023-04-06T09:37:47;100848.44;;;4.38;52.95
74310;BME280;62722;51.142;17.052;2023-04-06T09:40:15;100846.38;;;4.48;51.63
74310;BME280;62722;51.142;17.052;2023-04-06T09:42:46;100845.72;;;4.41;52.97
74310;BME280;62722;51.142;17.052;2023-04-06T09:45:15;100837.63;;;4.49;53.67
74310;BME280;62722;51.142;17.052;2023-04-06T09:47:43;100846.84;;;4.60;53.19
74310;BME280;62722;51.142;17.052;2023-04-06T09:50:12;100837.75;;;4.72;52.77
74310;BME280;62722;51.142;17.052;2023-04-06T09:52:46;100832.19;;;4.82;51.70
74310;BME280;62722;51.142;17.052;2023-04-06T09:55:23;100835.38;;;4.64;51.92
74310;BME280;62722;51.142;17.052;2023-04-06T09:57:57;100842.34;;;4.65;52.01
74310;BME280;62722;51.142;17.052;2023-04-06T10:00:31;100839.91;;;4.59;50.29
74310;BME280;62722;51.142;17.052;2023-04-06T10:03:09;100839.28;;;4.51;50.81
74310;BME280;62722;51.142;17.052;2023-04-06T10:05:45;100829.66;;;4.53;51.33
74310;BME280;62722;51.142;17.052;2023-04-06T10:08:13;100836.00;;;4.72;51.35
74310;BME280;62722;51.142;17.052;2023-04-06T10:10:43;100834.19;;;4.74;51.44
74310;BME280;62722;51.142;17.052;2023-04-06T10:13:11;100834.75;;;4.84;51.61
74310;BME280;62722;51.142;17.052;2023-04-06T10:15:38;100839.03;;;4.86;50.74
74310;BME280;62722;51.142;17.052;2023-04-06T10:18:06;100830.72;;;4.74;50.91
74310;BME280;62722;51.142;17.052;2023-04-06T10:20:39;100823.09;;;4.66;50.34
74310;BME280;62722;51.142;17.052;2023-04-06T10:23:12;100825.78;;;4.65;50.59
74310;BME280;62722;51.142;17.052;2023-04-06T10:25:53;100829.06;;;4.71;50.94
74310;BME280;62722;51.142;17.052;2023-04-06T10:28:20;100829.16;;;4.68;49.63
74310;BME280;62722;51.142;17.052;2023-04-06T10:30:48;100818.38;;;4.77;50.04
74310;BME280;62722;51.142;17.052;2023-04-06T10:33:16;100823.59;;;5.04;49.23
74310;BME280;62722;51.142;17.052;2023-04-06T10:35:47;100816.47;;;5.09;49.50
74310;BME280;62722;51.142;17.052;2023-04-06T10:38:20;100811.00;;;5.15;48.47
74310;BME280;62722;51.142;17.052;2023-04-06T10:40:50;100805.03;;;5.11;49.33
74310;BME280;62722;51.142;17.052;2023-04-06T10:50:01;100809.41;;;5.11;48.71
74310;BME280;62722;51.142;17.052;2023-04-06T10:52:39;100804.03;;;5.15;49.57
74310;BME280;62722;51.142;17.052;2023-04-06T10:55:19;100807.66;;;5.11;49.06
74310;BME280;62722;51.142;17.052;2023-04-06T10:58:10;100806.91;;;5.08;48.62
74310;BME280;62722;51.142;17.052;2023-04-06T11:00:45;100807.75;;;5.08;48.69
74310;BME280;62722;51.142;17.052;2023-04-06T11:03:21;100793.69;;;5.11;49.34
74310;BME280;62722;51.142;17.052;2023-04-06T11:05:50;100793.78;;;5.09;49.72
74310;BME280;62722;51.142;17.052;2023-04-06T11:08:29;100793.16;;;5.26;50.03
74310;BME280;62722;51.142;17.052;2023-04-06T11:11:07;100793.44;;;5.43;49.05
74310;BME280;62722;51.142;17.052;2023-04-06T11:13:42;100797.47;;;5.52;49.69
74310;BME280;62722;51.142;17.052;2023-04-06T11:16:15;100793.22;;;5.49;48.65
74310;BME280;62722;51.142;17.052;2023-04-06T11:18:48;100786.06;;;5.54;48.04
74310;BME280;62722;51.142;17.052;2023-04-06T11:21:17;100785.94;;;5.57;49.93
74310;BME280;62722;51.142;17.052;2023-04-06T11:23:46;100778.59;;;5.67;50.01
74310;BME280;62722;51.142;17.052;2023-04-06T11:26:14;100761.34;;;5.61;48.68
74310;BME280;62722;51.142;17.052;2023-04-06T11:28:42;100782.25;;;5.86;48.09
74310;BME280;62722;51.142;17.052;2023-04-06T11:31:10;100776.59;;;5.73;48.92
74310;BME280;62722;51.142;17.052;2023-04-06T11:33:41;100770.19;;;5.80;47.03
74310;BME280;62722;51.142;17.052;2023-04-06T11:36:09;100774.31;;;5.87;47.36
74310;BME280;62722;51.142;17.052;2023-04-06T11:38:39;100772.28;;;5.96;47.05
74310;BME280;62722;51.142;17.052;2023-04-06T11:41:06;100764.78;;;5.85;47.03
74310;BME280;62722;51.142;17.052;2023-04-06T11:43:34;100773.78;;;5.78;47.29
74310;BME280;62722;51.142;17.052;2023-04-06T11:46:02;100756.19;;;5.81;47.93
74310;BME280;62722;51.142;17.052;2023-04-06T11:48:30;100763.94;;;5.86;47.31
74310;BME280;62722;51.142;17.052;2023-04-06T11:51:01;100759.13;;;5.97;48.71
74310;BME280;62722;51.142;17.052;2023-04-06T11:53:31;100770.03;;;5.86;47.48
74310;BME280;62722;51.142;17.052;2023-04-06T11:55:59;100758.03;;;6.03;47.54
74310;BME280;62722;51.142;17.052;2023-04-06T11:58:26;100760.84;;;5.98;47.25
74310;BME280;62722;51.142;17.052;2023-04-06T12:00:54;100761.00;;;5.94;46.79
74310;BME280;62722;51.142;17.052;2023-04-06T12:03:35;100750.97;;;6.05;46.03
74310;BME280;62722;51.142;17.052;2023-04-06T12:06:04;100755.81;;;5.92;44.57
74310;BME280;62722;51.142;17.052;2023-04-06T12:08:32;100750.66;;;5.91;44.84
74310;BME280;62722;51.142;17.052;2023-04-06T12:10:59;100748.78;;;5.94;45.49
74310;BME280;62722;51.142;17.052;2023-04-06T12:13:26;100734.00;;;5.92;45.22
74310;BME280;62722;51.142;17.052;2023-04-06T12:15:53;100730.34;;;5.96;46.92
74310;BME280;62722;51.142;17.052;2023-04-06T12:18:21;100733.19;;;6.13;47.62
74310;BME280;62722;51.142;17.052;2023-04-06T12:20:49;100737.19;;;6.21;46.34
74310;BME280;62722;51.142;17.052;2023-04-06T12:23:20;100729.44;;;6.18;45.97
74310;BME280;62722;51.142;17.052;2023-04-06T12:25:47;100726.09;;;6.15;46.58
74310;BME280;62722;51.142;17.052;2023-04-06T12:28:18;100724.38;;;6.14;45.95
74310;BME280;62722;51.142;17.052;2023-04-06T12:30:49;100711.53;;;6.08;46.24
74310;BME280;62722;51.142;17.052;2023-04-06T12:33:17;100718.31;;;6.13;47.52
74310;BME280;62722;51.142;17.052;2023-04-06T12:35:44;100711.69;;;6.25;46.85
74310;BME280;62722;51.142;17.052;2023-04-06T12:38:12;100708.16;;;6.26;45.94
74310;BME280;62722;51.142;17.052;2023-04-06T12:40:40;100695.31;;;6.20;45.55
74310;BME280;62722;51.142;17.052;2023-04-06T12:43:10;100697.44;;;6.32;46.39
74310;BME280;62722;51.142;17.052;2023-04-06T12:45:39;100696.66;;;6.30;44.99
74310;BME280;62722;51.142;17.052;2023-04-06T12:48:07;100691.94;;;6.38;45.79
74310;BME280;62722;51.142;17.052;2023-04-06T12:50:34;100685.97;;;6.34;45.26
74310;BME280;62722;51.142;17.052;2023-04-06T12:53:02;100689.00;;;6.46;46.86
74310;BME280;62722;51.142;17.052;2023-04-06T12:55:30;100686.44;;;6.44;45.29
74310;BME280;62722;51.142;17.052;2023-04-06T12:58:04;100706.91;;;6.56;43.46
74310;BME280;62722;51.142;17.052;2023-04-06T13:00:31;100689.19;;;6.41;43.18